createdAt,value
2019-02-15T00:00:31.799Z,0.00
2019-02-15T00:01:31.737Z,0.00
2019-02-15T00:02:31.674Z,0.00
2019-02-15T00:03:31.615Z,0.00
2019-02-15T00:04:31.550Z,0.00
2019-02-15T00:05:31.488Z,0.00
2019-02-15T00:06:31.428Z,0.00
2019-02-15T00:07:31.366Z,0.00
2019-02-15T00:08:31.307Z,0.00
2019-02-15T00:09:31.243Z,0.00
2019-02-15T00:10:31.180Z,0.00
2019-02-15T00:11:31.120Z,0.00
2019-02-15T00:12:31.056Z,0.00
2019-02-15T00:13:30.994Z,0.00
2019-02-15T00:14:30.936Z,0.00
2019-02-15T00:15:30.872Z,0.00
2019-02-15T00:16:30.813Z,0.00
2019-02-15T00:17:30.751Z,0.00
2019-02-15T00:18:30.686Z,0.00
2019-02-15T00:19:31.508Z,0.00
2019-02-15T00:20:30.564Z,0.00
2019-02-15T00:21:30.503Z,0.00
2019-02-15T00:22:30.441Z,0.00
2019-02-15T00:23:30.380Z,0.00
2019-02-15T00:24:30.315Z,0.00
2019-02-15T00:25:30.257Z,0.00
2019-02-15T00:26:30.193Z,0.00
2019-02-15T00:27:30.136Z,0.00
2019-02-15T00:28:30.069Z,0.00
2019-02-15T00:29:30.009Z,0.00
2019-02-15T00:30:29.946Z,0.00
2019-02-15T00:31:29.885Z,0.00
2019-02-15T00:32:29.824Z,0.00
2019-02-15T00:33:29.765Z,0.00
2019-02-15T00:34:29.699Z,0.00
2019-02-15T00:35:29.636Z,0.00
2019-02-15T00:36:29.574Z,0.00
2019-02-15T00:37:29.518Z,0.00
2019-02-15T00:38:29.451Z,0.00
2019-02-15T00:39:29.392Z,0.00
2019-02-15T00:40:29.334Z,0.00
2019-02-15T00:41:29.267Z,0.00
2019-02-15T00:42:29.204Z,0.00
2019-02-15T00:43:29.144Z,0.00
2019-02-15T00:44:29.080Z,0.00
2019-02-15T00:45:29.019Z,0.00
2019-02-15T00:46:28.956Z,0.00
2019-02-15T00:47:28.897Z,0.00
2019-02-15T00:48:28.832Z,0.00
2019-02-15T00:49:28.772Z,0.00
2019-02-15T00:50:28.711Z,0.00
2019-02-15T00:51:28.650Z,0.00
2019-02-15T00:52:28.587Z,0.00
2019-02-15T00:53:28.524Z,0.00
2019-02-15T00:54:28.463Z,0.00
2019-02-15T00:55:28.401Z,0.00
2019-02-15T00:56:28.338Z,0.00
2019-02-15T00:57:28.278Z,0.00
2019-02-15T00:58:28.216Z,0.00
2019-02-15T00:59:28.155Z,0.00
2019-02-15T01:00:28.094Z,0.00
2019-02-15T01:01:28.030Z,0.00
2019-02-15T01:02:27.968Z,0.00
2019-02-15T01:03:27.915Z,0.00
2019-02-15T01:04:27.844Z,0.00
2019-02-15T01:05:27.784Z,0.00
2019-02-15T01:06:27.720Z,0.00
2019-02-15T01:07:27.662Z,0.00
2019-02-15T01:08:27.598Z,0.00
2019-02-15T01:09:27.535Z,0.00
2019-02-15T01:10:27.473Z,0.00
2019-02-15T01:11:27.411Z,0.00
2019-02-15T01:12:27.348Z,0.00
2019-02-15T01:13:31.171Z,0.00
2019-02-15T01:14:27.231Z,0.00
2019-02-15T01:15:27.165Z,0.00
2019-02-15T01:16:27.101Z,0.00
2019-02-15T01:17:27.051Z,0.00
2019-02-15T01:18:26.978Z,0.00
2019-02-15T01:19:26.918Z,0.00
2019-02-15T01:20:26.854Z,0.00
2019-02-15T01:21:26.795Z,0.00
2019-02-15T01:22:26.731Z,0.00
2019-02-15T01:23:26.670Z,0.00
2019-02-15T01:24:26.608Z,0.00
2019-02-15T01:25:26.545Z,0.00
2019-02-15T01:26:26.483Z,0.00
2019-02-15T01:27:26.422Z,0.00
2019-02-15T01:28:26.359Z,0.00
2019-02-15T01:29:26.298Z,0.00
2019-02-15T01:30:26.237Z,0.00
2019-02-15T01:31:26.175Z,0.00
2019-02-15T01:32:26.112Z,0.00
2019-02-15T01:33:26.051Z,0.00
2019-02-15T01:34:25.988Z,0.00
2019-02-15T01:35:25.926Z,0.00
2019-02-15T01:36:25.863Z,0.00
2019-02-15T01:37:25.804Z,0.00
2019-02-15T01:38:25.741Z,0.00
2019-02-15T01:39:25.680Z,0.00
2019-02-15T01:40:25.616Z,0.00
2019-02-15T01:41:25.555Z,0.00
2019-02-15T01:42:25.494Z,0.00
2019-02-15T01:43:25.433Z,0.00
2019-02-15T01:44:25.371Z,0.00
2019-02-15T01:45:25.307Z,0.00
2019-02-15T01:46:25.245Z,0.00
2019-02-15T01:47:25.183Z,0.00
2019-02-15T01:48:25.121Z,0.00
2019-02-15T01:49:25.060Z,0.00
2019-02-15T01:50:25.025Z,0.00
2019-02-15T01:51:24.941Z,0.00
2019-02-15T01:52:24.874Z,0.00
2019-02-15T01:53:24.812Z,0.00
2019-02-15T01:54:24.750Z,0.00
2019-02-15T01:55:24.688Z,0.00
2019-02-15T01:56:24.627Z,0.00
2019-02-15T01:57:24.564Z,0.00
2019-02-15T01:58:24.520Z,0.00
2019-02-15T01:59:24.442Z,0.00
2019-02-15T02:00:24.379Z,0.00
2019-02-15T02:01:24.319Z,0.00
2019-02-15T02:02:24.255Z,0.00
2019-02-15T02:03:24.192Z,0.00
2019-02-15T02:04:24.131Z,0.00
2019-02-15T02:05:24.070Z,0.00
2019-02-15T02:06:24.008Z,0.00
2019-02-15T02:07:23.947Z,0.00
2019-02-15T02:08:23.883Z,0.00
2019-02-15T02:09:23.826Z,0.00
2019-02-15T02:10:23.759Z,0.00
2019-02-15T02:11:23.702Z,0.00
2019-02-15T02:12:23.638Z,0.00
2019-02-15T02:13:23.582Z,0.00
2019-02-15T02:14:23.512Z,0.00
2019-02-15T02:15:23.454Z,0.00
2019-02-15T02:16:23.393Z,0.00
2019-02-15T02:17:23.325Z,0.00
2019-02-15T02:18:23.265Z,0.00
2019-02-15T02:19:23.202Z,0.00
2019-02-15T02:20:23.139Z,0.00
2019-02-15T02:21:23.077Z,0.00
2019-02-15T02:22:23.017Z,0.00
2019-02-15T02:23:23.006Z,0.00
2019-02-15T02:24:22.893Z,0.00
2019-02-15T02:25:22.830Z,0.00
2019-02-15T02:26:22.769Z,0.00
2019-02-15T02:27:22.706Z,0.00
2019-02-15T02:28:22.646Z,0.00
2019-02-15T02:29:22.585Z,0.00
2019-02-15T02:30:22.521Z,0.00
2019-02-15T02:31:22.459Z,0.00
2019-02-15T02:32:22.396Z,0.00
2019-02-15T02:33:22.335Z,0.00
2019-02-15T02:34:22.273Z,0.00
2019-02-15T02:35:22.210Z,0.00
2019-02-15T02:36:22.154Z,0.00
2019-02-15T02:37:22.086Z,0.00
2019-02-15T02:38:22.030Z,0.00
2019-02-15T02:39:21.994Z,0.00
2019-02-15T02:40:21.899Z,0.00
2019-02-15T02:41:21.840Z,0.00
2019-02-15T02:42:21.780Z,0.00
2019-02-15T02:43:21.714Z,0.00
2019-02-15T02:44:21.651Z,0.00
2019-02-15T02:45:21.610Z,0.00
2019-02-15T02:46:21.527Z,0.00
2019-02-15T02:47:21.466Z,0.00
2019-02-15T02:48:21.404Z,0.00
2019-02-15T02:49:21.345Z,0.00
2019-02-15T02:50:21.280Z,0.00
2019-02-15T02:51:21.407Z,0.00
2019-02-15T02:52:21.158Z,0.00
2019-02-15T02:53:21.217Z,0.00
2019-02-15T02:54:21.270Z,0.00
2019-02-15T02:55:21.041Z,0.00
2019-02-15T02:56:20.908Z,0.00
2019-02-15T02:57:20.850Z,0.00
2019-02-15T02:58:20.794Z,0.00
2019-02-15T02:59:20.723Z,0.00
2019-02-15T03:00:20.660Z,0.00
2019-02-15T03:01:20.597Z,0.00
2019-02-15T03:02:20.535Z,0.00
2019-02-15T03:03:20.477Z,0.00
2019-02-15T03:04:20.424Z,0.00
2019-02-15T03:05:20.353Z,0.00
2019-02-15T03:06:20.294Z,0.00
2019-02-15T03:07:20.225Z,0.00
2019-02-15T03:08:20.163Z,0.00
2019-02-15T03:09:20.105Z,0.00
2019-02-15T03:10:20.039Z,0.00
2019-02-15T03:11:19.988Z,0.00
2019-02-15T03:12:19.913Z,0.00
2019-02-15T03:13:19.854Z,0.00
2019-02-15T03:14:19.790Z,0.00
2019-02-15T03:15:19.730Z,0.00
2019-02-15T03:16:19.666Z,0.00
2019-02-15T03:17:19.604Z,0.00
2019-02-15T03:18:19.542Z,0.00
2019-02-15T03:19:19.487Z,0.00
2019-02-15T03:20:30.402Z,0.00
2019-02-15T03:21:19.548Z,0.00
2019-02-15T03:22:19.293Z,0.00
2019-02-15T03:23:19.234Z,0.00
2019-02-15T03:24:19.170Z,0.00
2019-02-15T03:25:19.106Z,0.00
2019-02-15T03:26:19.045Z,0.00
2019-02-15T03:27:18.984Z,0.00
2019-02-15T03:28:18.924Z,0.00
2019-02-15T03:29:18.862Z,0.00
2019-02-15T03:30:18.803Z,0.00
2019-02-15T03:31:18.735Z,0.00
2019-02-15T03:32:18.694Z,0.00
2019-02-15T03:33:18.631Z,0.00
2019-02-15T03:34:18.550Z,0.00
2019-02-15T03:35:18.488Z,0.00
2019-02-15T03:36:18.425Z,0.00
2019-02-15T03:37:18.365Z,0.00
2019-02-15T03:38:18.302Z,0.00
2019-02-15T03:39:18.238Z,0.00
2019-02-15T03:40:18.176Z,0.00
2019-02-15T03:41:18.117Z,0.00
2019-02-15T03:42:18.053Z,0.00
2019-02-15T03:43:17.991Z,0.00
2019-02-15T03:44:22.214Z,0.00
2019-02-15T03:45:17.865Z,0.00
2019-02-15T03:46:17.804Z,0.00
2019-02-15T03:47:17.740Z,0.00
2019-02-15T03:48:17.678Z,0.00
2019-02-15T03:49:17.617Z,0.00
2019-02-15T03:50:17.555Z,0.00
2019-02-15T03:51:17.491Z,0.00
2019-02-15T03:52:17.428Z,0.00
2019-02-15T03:53:17.368Z,0.00
2019-02-15T03:54:17.304Z,0.00
2019-02-15T03:55:17.242Z,0.00
2019-02-15T03:56:17.180Z,0.00
2019-02-15T03:57:17.119Z,0.00
2019-02-15T03:58:17.059Z,0.00
2019-02-15T03:59:16.995Z,0.00
2019-02-15T04:00:16.931Z,0.00
2019-02-15T04:01:16.869Z,0.00
2019-02-15T04:02:16.807Z,0.00
2019-02-15T04:03:16.747Z,0.00
2019-02-15T04:04:16.684Z,0.00
2019-02-15T04:05:16.620Z,0.00
2019-02-15T04:06:16.558Z,0.00
2019-02-15T04:07:16.498Z,0.00
2019-02-15T04:08:16.433Z,0.00
2019-02-15T04:09:16.372Z,0.00
2019-02-15T04:10:16.309Z,0.00
2019-02-15T04:11:16.247Z,0.00
2019-02-15T04:12:16.183Z,0.00
2019-02-15T04:13:16.544Z,0.00
2019-02-15T04:14:16.065Z,0.00
2019-02-15T04:15:16.003Z,0.00
2019-02-15T04:16:15.938Z,0.00
2019-02-15T04:17:15.876Z,0.00
2019-02-15T04:18:15.812Z,0.00
2019-02-15T04:19:15.752Z,0.00
2019-02-15T04:20:15.688Z,0.00
2019-02-15T04:21:15.649Z,0.00
2019-02-15T04:22:15.564Z,0.00
2019-02-15T04:23:15.503Z,0.00
2019-02-15T04:24:15.439Z,0.00
2019-02-15T04:25:15.375Z,0.00
2019-02-15T04:26:15.313Z,0.00
2019-02-15T04:27:15.257Z,0.00
2019-02-15T04:28:15.189Z,0.00
2019-02-15T04:29:15.129Z,0.00
2019-02-15T04:30:15.065Z,0.00
2019-02-15T04:31:15.003Z,0.00
2019-02-15T04:32:14.940Z,0.00
2019-02-15T04:33:14.882Z,0.00
2019-02-15T04:34:14.815Z,0.00
2019-02-15T04:35:14.754Z,0.00
2019-02-15T04:36:14.710Z,0.00
2019-02-15T04:37:14.631Z,0.00
2019-02-15T04:38:14.566Z,0.00
2019-02-15T04:39:14.504Z,0.00
2019-02-15T04:40:14.442Z,0.00
2019-02-15T04:41:14.390Z,0.00
2019-02-15T04:42:14.320Z,0.00
2019-02-15T04:43:14.257Z,0.00
2019-02-15T04:44:14.193Z,0.00
2019-02-15T04:45:14.130Z,0.00
2019-02-15T04:46:14.067Z,0.00
2019-02-15T04:47:14.008Z,0.00
2019-02-15T04:48:13.941Z,0.00
2019-02-15T04:49:13.879Z,0.00
2019-02-15T04:50:13.820Z,0.00
2019-02-15T04:51:13.756Z,0.00
2019-02-15T04:52:13.693Z,0.00
2019-02-15T04:53:13.631Z,0.00
2019-02-15T04:54:13.568Z,0.00
2019-02-15T04:55:13.508Z,0.00
2019-02-15T04:56:13.446Z,0.00
2019-02-15T04:57:13.380Z,0.00
2019-02-15T04:58:13.323Z,0.00
2019-02-15T04:59:13.263Z,0.00
2019-02-15T05:00:13.203Z,0.00
2019-02-15T05:01:13.133Z,0.00
2019-02-15T05:02:13.073Z,0.00
2019-02-15T05:03:13.007Z,0.00
2019-02-15T05:04:12.946Z,0.00
2019-02-15T05:05:12.882Z,0.00
2019-02-15T05:06:12.824Z,0.00
2019-02-15T05:07:12.760Z,0.00
2019-02-15T05:08:12.695Z,0.00
2019-02-15T05:09:12.634Z,0.00
2019-02-15T05:10:12.573Z,0.00
2019-02-15T05:11:12.515Z,0.00
2019-02-15T05:12:12.451Z,0.00
2019-02-15T05:13:12.383Z,0.00
2019-02-15T05:14:12.323Z,0.00
2019-02-15T05:15:12.260Z,0.00
2019-02-15T05:16:12.197Z,0.00
2019-02-15T05:17:12.134Z,0.00
2019-02-15T05:18:12.325Z,0.00
2019-02-15T05:19:12.064Z,0.00
2019-02-15T05:20:11.950Z,0.00
2019-02-15T05:21:12.839Z,0.00
2019-02-15T05:22:11.826Z,0.00
2019-02-15T05:23:11.760Z,0.00
2019-02-15T05:24:11.698Z,0.00
2019-02-15T05:25:11.637Z,0.00
2019-02-15T05:26:11.578Z,0.00
2019-02-15T05:27:11.510Z,0.00
2019-02-15T05:28:11.447Z,0.00
2019-02-15T05:29:11.409Z,0.00
2019-02-15T05:30:11.328Z,0.00
2019-02-15T05:31:11.262Z,0.00
2019-02-15T05:32:11.201Z,0.00
2019-02-15T05:33:11.136Z,0.00
2019-02-15T05:34:11.074Z,0.00
2019-02-15T05:35:11.013Z,0.00
2019-02-15T05:36:10.953Z,0.00
2019-02-15T05:37:10.904Z,0.00
2019-02-15T05:38:10.825Z,0.00
2019-02-15T05:39:10.778Z,0.00
2019-02-15T05:40:10.701Z,0.00
2019-02-15T05:41:10.636Z,0.00
2019-02-15T05:42:10.574Z,0.00
2019-02-15T05:43:10.513Z,0.00
2019-02-15T05:44:10.452Z,0.00
2019-02-15T05:45:10.391Z,0.00
2019-02-15T05:46:10.324Z,0.00
2019-02-15T05:47:10.262Z,0.00
2019-02-15T05:48:10.204Z,0.00
2019-02-15T05:49:10.136Z,0.00
2019-02-15T05:50:10.075Z,0.00
2019-02-15T05:51:10.014Z,0.00
2019-02-15T05:52:09.948Z,0.00
2019-02-15T05:53:09.896Z,0.00
2019-02-15T05:54:09.825Z,0.00
2019-02-15T05:55:09.765Z,0.00
2019-02-15T05:56:09.719Z,0.00
2019-02-15T05:57:09.756Z,0.00
2019-02-15T05:58:09.575Z,0.00
2019-02-15T05:59:09.514Z,0.00
2019-02-15T06:00:09.450Z,0.00
2019-02-15T06:01:09.418Z,0.00
2019-02-15T06:02:09.325Z,0.00
2019-02-15T06:03:09.264Z,0.00
2019-02-15T06:04:09.203Z,0.00
2019-02-15T06:05:09.138Z,0.00
2019-02-15T06:06:09.074Z,0.00
2019-02-15T06:07:09.015Z,0.00
2019-02-15T06:08:08.951Z,0.00
2019-02-15T06:09:08.888Z,0.00
2019-02-15T06:10:08.827Z,0.00
2019-02-15T06:11:08.785Z,0.00
2019-02-15T06:12:08.699Z,0.00
2019-02-15T06:13:08.644Z,0.00
2019-02-15T06:14:08.576Z,0.00
2019-02-15T06:15:15.073Z,0.00
2019-02-15T06:16:08.450Z,0.00
2019-02-15T06:17:08.388Z,0.00
2019-02-15T06:18:08.357Z,0.00
2019-02-15T06:19:08.264Z,0.00
2019-02-15T06:20:08.241Z,0.00
2019-02-15T06:21:08.579Z,0.00
2019-02-15T06:22:08.075Z,0.00
2019-02-15T06:23:08.014Z,0.00
2019-02-15T06:24:07.955Z,0.00
2019-02-15T06:25:07.904Z,0.00
2019-02-15T06:26:07.825Z,0.00
2019-02-15T06:27:07.762Z,0.00
2019-02-15T06:28:07.701Z,0.00
2019-02-15T06:29:07.639Z,0.00
2019-02-15T06:30:07.578Z,0.00
2019-02-15T06:31:07.523Z,0.00
2019-02-15T06:32:07.454Z,0.00
2019-02-15T06:33:07.391Z,0.00
2019-02-15T06:34:07.326Z,0.00
2019-02-15T06:35:07.266Z,0.00
2019-02-15T06:36:07.201Z,0.00
2019-02-15T06:37:07.141Z,0.00
2019-02-15T06:38:07.075Z,0.00
2019-02-15T06:39:07.102Z,0.00
2019-02-15T06:40:07.001Z,0.00
2019-02-15T06:41:06.892Z,0.00
2019-02-15T06:42:06.836Z,0.00
2019-02-15T06:43:06.763Z,0.00
2019-02-15T06:44:06.699Z,0.00
2019-02-15T06:45:06.734Z,0.00
2019-02-15T06:46:06.575Z,0.00
2019-02-15T06:47:06.525Z,0.00
2019-02-15T06:48:06.450Z,0.00
2019-02-15T06:49:06.390Z,0.00
2019-02-15T06:50:06.333Z,0.00
2019-02-15T06:51:06.264Z,0.00
2019-02-15T06:52:06.203Z,0.00
2019-02-15T06:53:06.138Z,0.00
2019-02-15T06:54:06.074Z,0.00
2019-02-15T06:55:06.012Z,0.00
2019-02-15T06:56:05.952Z,0.00
2019-02-15T06:57:05.886Z,0.00
2019-02-15T06:58:05.835Z,0.00
2019-02-15T06:59:05.763Z,0.00
2019-02-15T07:00:05.709Z,0.00
2019-02-15T07:01:05.636Z,0.00
2019-02-15T07:02:05.573Z,0.00
2019-02-15T07:03:05.519Z,0.00
2019-02-15T07:04:05.451Z,0.00
2019-02-15T07:05:05.385Z,0.00
2019-02-15T07:06:05.447Z,0.00
2019-02-15T07:07:05.260Z,0.00
2019-02-15T07:08:05.199Z,0.00
2019-02-15T07:09:05.140Z,0.00
2019-02-15T07:10:05.077Z,0.00
2019-02-15T07:11:05.014Z,0.00
2019-02-15T07:12:04.947Z,0.00
2019-02-15T07:13:04.884Z,0.00
2019-02-15T07:14:04.823Z,0.00
2019-02-15T07:15:04.760Z,4.00
2019-02-15T07:16:04.697Z,4.00
2019-02-15T07:17:04.635Z,4.00
2019-02-15T07:18:04.572Z,0.00
2019-02-15T07:19:04.510Z,0.00
2019-02-15T07:20:04.448Z,4.00
2019-02-15T07:21:04.392Z,4.00
2019-02-15T07:22:04.323Z,0.00
2019-02-15T07:23:04.566Z,4.00
2019-02-15T07:24:04.196Z,4.00
2019-02-15T07:25:04.133Z,4.00
2019-02-15T07:26:04.082Z,8.00
2019-02-15T07:27:04.009Z,4.00
2019-02-15T07:28:03.946Z,4.00
2019-02-15T07:29:03.891Z,4.00
2019-02-15T07:30:03.821Z,4.00
2019-02-15T07:31:03.759Z,8.00
2019-02-15T07:32:03.698Z,8.00
2019-02-15T07:33:03.635Z,8.00
2019-02-15T07:34:03.570Z,12.00
2019-02-15T07:35:03.508Z,12.00
2019-02-15T07:36:03.445Z,8.00
2019-02-15T07:37:03.386Z,8.00
2019-02-15T07:38:03.321Z,12.00
2019-02-15T07:39:03.258Z,12.00
2019-02-15T07:40:03.196Z,12.00
2019-02-15T07:41:03.133Z,12.00
2019-02-15T07:42:03.073Z,12.00
2019-02-15T07:43:03.007Z,8.00
2019-02-15T07:44:02.948Z,12.00
2019-02-15T07:45:02.884Z,12.00
2019-02-15T07:46:02.819Z,12.00
2019-02-15T07:47:02.762Z,12.00
2019-02-15T07:48:02.695Z,12.00
2019-02-15T07:49:02.631Z,12.00
2019-02-15T07:50:02.569Z,12.00
2019-02-15T07:51:09.267Z,12.00
2019-02-15T07:52:02.448Z,12.00
2019-02-15T07:53:02.391Z,16.00
2019-02-15T07:54:02.318Z,12.00
2019-02-15T07:55:02.257Z,12.00
2019-02-15T07:56:02.194Z,12.00
2019-02-15T07:57:02.131Z,12.00
2019-02-15T07:58:02.069Z,12.00
2019-02-15T07:59:02.005Z,12.00
2019-02-15T08:00:01.944Z,12.00
2019-02-15T08:01:01.889Z,16.00
2019-02-15T08:02:02.295Z,16.00
2019-02-15T08:03:01.757Z,16.00
2019-02-15T08:04:01.707Z,16.00
2019-02-15T08:05:01.629Z,12.00
2019-02-15T08:06:01.567Z,12.00
2019-02-15T08:07:01.513Z,12.00
2019-02-15T08:08:01.442Z,12.00
2019-02-15T08:09:01.382Z,16.00
2019-02-15T08:10:01.315Z,16.00
2019-02-15T08:11:01.255Z,16.00
2019-02-15T08:12:01.189Z,16.00
2019-02-15T08:13:01.129Z,16.00
2019-02-15T08:14:01.066Z,16.00
2019-02-15T08:15:01.003Z,16.00
2019-02-15T08:16:02.810Z,16.00
2019-02-15T08:17:00.877Z,16.00
2019-02-15T08:18:00.816Z,16.00
2019-02-15T08:19:00.759Z,16.00
2019-02-15T08:20:00.694Z,16.00
2019-02-15T08:21:00.677Z,16.00
2019-02-15T08:22:00.569Z,16.00
2019-02-15T08:23:00.504Z,16.00
2019-02-15T08:24:00.439Z,16.00
2019-02-15T08:25:02.767Z,16.00
2019-02-15T08:26:00.314Z,20.00
2019-02-15T08:27:00.256Z,20.00
2019-02-15T08:28:00.188Z,20.00
2019-02-15T08:29:00.129Z,20.00
2019-02-15T08:30:00.065Z,20.00
2019-02-15T08:31:00.002Z,16.00
2019-02-15T08:31:59.937Z,16.00
2019-02-15T08:32:59.879Z,16.00
2019-02-15T08:33:59.813Z,16.00
2019-02-15T08:34:59.757Z,16.00
2019-02-15T08:35:59.693Z,16.00
2019-02-15T08:36:59.626Z,16.00
2019-02-15T08:37:59.568Z,16.00
2019-02-15T08:38:59.501Z,16.00
2019-02-15T08:39:59.437Z,16.00
2019-02-15T08:40:59.375Z,16.00
2019-02-15T08:42:03.901Z,16.00
2019-02-15T08:42:59.252Z,16.00
2019-02-15T08:43:59.190Z,16.00
2019-02-15T08:44:59.129Z,16.00
2019-02-15T08:46:01.720Z,16.00
2019-02-15T08:46:59.008Z,16.00
2019-02-15T08:47:58.936Z,20.00
2019-02-15T08:48:58.874Z,20.00
2019-02-15T08:49:58.814Z,20.00
2019-02-15T08:50:58.749Z,20.00
2019-02-15T08:51:58.689Z,20.00
2019-02-15T08:52:58.625Z,20.00
2019-02-15T08:53:58.566Z,20.00
2019-02-15T08:54:58.501Z,20.00
2019-02-15T08:55:58.436Z,20.00
2019-02-15T08:56:58.378Z,20.00
2019-02-15T08:57:58.314Z,16.00
2019-02-15T08:58:58.249Z,16.00
2019-02-15T08:59:58.189Z,20.00
2019-02-15T09:00:58.123Z,16.00
2019-02-15T09:01:58.062Z,16.00
2019-02-15T09:02:57.999Z,16.00
2019-02-15T09:03:57.935Z,16.00
2019-02-15T09:04:57.873Z,16.00
2019-02-15T09:05:57.812Z,16.00
2019-02-15T09:06:57.749Z,20.00
2019-02-15T09:07:57.684Z,16.00
2019-02-15T09:08:57.632Z,20.00
2019-02-15T09:09:57.564Z,16.00
2019-02-15T09:10:57.499Z,20.00
2019-02-15T09:11:57.435Z,20.00
2019-02-15T09:12:57.375Z,16.00
2019-02-15T09:13:57.310Z,20.00
2019-02-15T09:14:57.248Z,20.00
2019-02-15T09:15:57.185Z,20.00
2019-02-15T09:16:57.123Z,24.00
2019-02-15T09:17:57.061Z,24.00
2019-02-15T09:18:56.996Z,24.00
2019-02-15T09:19:56.935Z,24.00
2019-02-15T09:20:56.872Z,20.00
2019-02-15T09:21:56.812Z,24.00
2019-02-15T09:22:56.750Z,24.00
2019-02-15T09:23:56.683Z,24.00
2019-02-15T09:24:56.624Z,20.00
2019-02-15T09:25:56.560Z,20.00
2019-02-15T09:26:56.498Z,20.00
2019-02-15T09:27:56.434Z,20.00
2019-02-15T09:28:56.373Z,20.00
2019-02-15T09:29:56.310Z,20.00
2019-02-15T09:30:56.248Z,20.00
2019-02-15T09:31:56.186Z,20.00
2019-02-15T09:32:56.121Z,24.00
2019-02-15T09:33:56.064Z,24.00
2019-02-15T09:34:55.996Z,24.00
2019-02-15T09:35:55.934Z,24.00
2019-02-15T09:36:55.872Z,24.00
2019-02-15T09:37:55.810Z,20.00
2019-02-15T09:38:55.753Z,20.00
2019-02-15T09:39:55.684Z,20.00
2019-02-15T09:40:55.623Z,20.00
2019-02-15T09:41:55.561Z,20.00
2019-02-15T09:42:55.500Z,20.00
2019-02-15T09:43:55.437Z,20.00
2019-02-15T09:44:55.378Z,24.00
2019-02-15T09:45:55.311Z,24.00
2019-02-15T09:46:55.247Z,24.00
2019-02-15T09:47:55.184Z,24.00
2019-02-15T09:48:55.124Z,20.00
2019-02-15T09:49:55.059Z,24.00
2019-02-15T09:50:54.997Z,24.00
2019-02-15T09:51:55.563Z,24.00
2019-02-15T09:52:54.872Z,24.00
2019-02-15T09:53:54.815Z,24.00
2019-02-15T09:54:54.747Z,28.00
2019-02-15T09:55:54.684Z,24.00
2019-02-15T09:56:54.621Z,24.00
2019-02-15T09:57:54.559Z,28.00
2019-02-15T09:58:54.499Z,28.00
2019-02-15T09:59:54.434Z,28.00
2019-02-15T10:00:54.372Z,24.00
2019-02-15T10:01:54.314Z,24.00
2019-02-15T10:02:54.246Z,28.00
2019-02-15T10:03:55.291Z,28.00
2019-02-15T10:04:54.122Z,28.00
2019-02-15T10:05:54.060Z,28.00
2019-02-15T10:06:53.997Z,28.00
2019-02-15T10:07:53.934Z,28.00
2019-02-15T10:08:53.874Z,28.00
2019-02-15T10:09:53.810Z,28.00
2019-02-15T10:10:53.747Z,28.00
2019-02-15T10:11:53.685Z,32.00
2019-02-15T10:12:53.622Z,28.00
2019-02-15T10:13:53.559Z,28.00
2019-02-15T10:14:53.498Z,32.00
2019-02-15T10:15:53.437Z,32.00
2019-02-15T10:16:53.376Z,32.00
2019-02-15T10:17:53.310Z,32.00
2019-02-15T10:18:53.248Z,32.00
2019-02-15T10:19:53.189Z,32.00
2019-02-15T10:20:53.123Z,32.00
2019-02-15T10:21:53.061Z,36.00
2019-02-15T10:22:53.004Z,36.00
2019-02-15T10:23:52.935Z,36.00
2019-02-15T10:24:52.877Z,36.00
2019-02-15T10:25:52.812Z,36.00
2019-02-15T10:26:52.749Z,40.00
2019-02-15T10:27:52.685Z,40.00
2019-02-15T10:28:52.628Z,36.00
2019-02-15T10:29:52.561Z,40.00
2019-02-15T10:30:52.501Z,40.00
2019-02-15T10:31:52.436Z,40.00
2019-02-15T10:32:52.374Z,44.00
2019-02-15T10:33:52.322Z,44.00
2019-02-15T10:34:52.252Z,44.00
2019-02-15T10:35:52.186Z,44.00
2019-02-15T10:36:52.124Z,44.00
2019-02-15T10:37:52.063Z,44.00
2019-02-15T10:38:52.000Z,44.00
2019-02-15T10:39:51.936Z,44.00
2019-02-15T10:40:51.876Z,48.00
2019-02-15T10:41:51.812Z,44.00
2019-02-15T10:42:51.750Z,48.00
2019-02-15T10:43:51.690Z,48.00
2019-02-15T10:44:51.627Z,48.00
2019-02-15T10:45:51.563Z,48.00
2019-02-15T10:46:51.500Z,48.00
2019-02-15T10:47:51.437Z,48.00
2019-02-15T10:48:51.374Z,48.00
2019-02-15T10:49:51.312Z,44.00
2019-02-15T10:50:51.251Z,44.00
2019-02-15T10:51:51.189Z,48.00
2019-02-15T10:52:51.126Z,48.00
2019-02-15T10:53:51.064Z,44.00
2019-02-15T10:54:51.011Z,44.00
2019-02-15T10:55:50.939Z,44.00
2019-02-15T10:56:50.876Z,44.00
2019-02-15T10:57:50.814Z,40.00
2019-02-15T10:58:50.752Z,44.00
2019-02-15T10:59:50.693Z,40.00
2019-02-15T11:00:50.627Z,44.00
2019-02-15T11:01:50.566Z,40.00
2019-02-15T11:02:50.503Z,40.00
2019-02-15T11:03:50.443Z,40.00
2019-02-15T11:04:50.377Z,40.00
2019-02-15T11:05:50.316Z,40.00
2019-02-15T11:06:50.253Z,40.00
2019-02-15T11:07:50.203Z,36.00
2019-02-15T11:08:50.130Z,40.00
2019-02-15T11:09:50.071Z,40.00
2019-02-15T11:10:50.003Z,36.00
2019-02-15T11:11:49.942Z,36.00
2019-02-15T11:12:49.881Z,36.00
2019-02-15T11:13:49.817Z,36.00
2019-02-15T11:14:49.759Z,40.00
2019-02-15T11:15:49.692Z,36.00
2019-02-15T11:16:49.635Z,36.00
2019-02-15T11:17:49.568Z,36.00
2019-02-15T11:18:49.509Z,36.00
2019-02-15T11:19:49.449Z,40.00
2019-02-15T11:20:49.382Z,40.00
2019-02-15T11:21:49.319Z,36.00
2019-02-15T11:22:49.258Z,40.00
2019-02-15T11:23:49.204Z,36.00
2019-02-15T11:24:49.132Z,40.00
2019-02-15T11:25:49.069Z,40.00
2019-02-15T11:26:49.008Z,44.00
2019-02-15T11:27:48.945Z,40.00
2019-02-15T11:28:48.887Z,40.00
2019-02-15T11:29:48.821Z,40.00
2019-02-15T11:30:48.759Z,40.00
2019-02-15T11:31:48.700Z,40.00
2019-02-15T11:32:48.635Z,40.00
2019-02-15T11:33:48.575Z,36.00
2019-02-15T11:34:48.510Z,40.00
2019-02-15T11:35:48.448Z,40.00
2019-02-15T11:36:48.386Z,40.00
2019-02-15T11:37:48.326Z,40.00
2019-02-15T11:38:48.263Z,40.00
2019-02-15T11:39:48.202Z,40.00
2019-02-15T11:40:48.136Z,36.00
2019-02-15T11:41:48.086Z,40.00
2019-02-15T11:42:48.047Z,40.00
2019-02-15T11:43:47.950Z,36.00
2019-02-15T11:44:47.889Z,36.00
2019-02-15T11:45:47.826Z,32.00
2019-02-15T11:46:56.314Z,36.00
2019-02-15T11:47:47.700Z,32.00
2019-02-15T11:48:47.642Z,36.00
2019-02-15T11:49:47.578Z,32.00
2019-02-15T11:50:47.516Z,32.00
2019-02-15T11:51:47.469Z,36.00
2019-02-15T11:52:47.391Z,32.00
2019-02-15T11:53:47.332Z,32.00
2019-02-15T11:54:47.271Z,32.00
2019-02-15T11:55:47.213Z,32.00
2019-02-15T11:56:47.144Z,32.00
2019-02-15T11:57:47.090Z,32.00
2019-02-15T11:58:47.019Z,28.00
2019-02-15T11:59:47.132Z,32.00
2019-02-15T12:00:46.907Z,32.00
2019-02-15T12:01:46.833Z,28.00
2019-02-15T12:02:46.774Z,28.00
2019-02-15T12:03:46.708Z,32.00
2019-02-15T12:04:46.648Z,28.00
2019-02-15T12:05:46.637Z,28.00
2019-02-15T12:06:46.523Z,28.00
2019-02-15T12:07:46.469Z,28.00
2019-02-15T12:08:46.401Z,28.00
2019-02-15T12:09:46.345Z,28.00
2019-02-15T12:10:46.277Z,32.00
2019-02-15T12:11:46.217Z,32.00
2019-02-15T12:12:46.151Z,28.00
2019-02-15T12:13:46.090Z,28.00
2019-02-15T12:14:46.027Z,28.00
2019-02-15T12:15:45.965Z,28.00
2019-02-15T12:16:45.903Z,28.00
2019-02-15T12:17:45.842Z,28.00
2019-02-15T12:18:45.788Z,28.00
2019-02-15T12:19:45.717Z,28.00
2019-02-15T12:20:45.656Z,28.00
2019-02-15T12:21:45.596Z,28.00
2019-02-15T12:22:45.536Z,28.00
2019-02-15T12:23:45.470Z,28.00
2019-02-15T12:24:45.411Z,28.00
2019-02-15T12:25:45.346Z,28.00
2019-02-15T12:26:45.285Z,28.00
2019-02-15T12:27:45.223Z,28.00
2019-02-15T12:28:45.164Z,24.00
2019-02-15T12:29:45.101Z,24.00
2019-02-15T12:30:45.043Z,24.00
2019-02-15T12:31:44.976Z,24.00
2019-02-15T12:32:44.917Z,24.00
2019-02-15T12:33:44.861Z,24.00
2019-02-15T12:34:44.792Z,28.00
2019-02-15T12:35:44.731Z,24.00
2019-02-15T12:36:44.666Z,24.00
2019-02-15T12:37:44.622Z,28.00
2019-02-15T12:38:44.543Z,24.00
2019-02-15T12:39:45.011Z,24.00
2019-02-15T12:40:44.422Z,24.00
2019-02-15T12:41:44.358Z,24.00
2019-02-15T12:42:44.296Z,24.00
2019-02-15T12:43:44.238Z,24.00
2019-02-15T12:44:44.173Z,24.00
2019-02-15T12:45:44.113Z,24.00
2019-02-15T12:46:44.061Z,24.00
2019-02-15T12:47:43.988Z,28.00
2019-02-15T12:48:43.928Z,28.00
2019-02-15T12:49:43.873Z,28.00
2019-02-15T12:50:43.803Z,28.00
2019-02-15T12:51:43.741Z,28.00
2019-02-15T12:52:43.683Z,28.00
2019-02-15T12:53:43.627Z,28.00
2019-02-15T12:54:43.556Z,28.00
2019-02-15T12:55:43.494Z,28.00
2019-02-15T12:56:43.432Z,28.00
2019-02-15T12:57:43.370Z,28.00
2019-02-15T12:58:43.314Z,28.00
2019-02-15T12:59:43.264Z,28.00
2019-02-15T13:00:43.739Z,28.00
2019-02-15T13:01:43.128Z,28.00
2019-02-15T13:02:43.066Z,28.00
2019-02-15T13:03:43.003Z,28.00
2019-02-15T13:04:42.942Z,28.00
2019-02-15T13:05:42.879Z,28.00
2019-02-15T13:06:43.241Z,28.00